LFRO/LAI METAR and TAF weather

Enter ICAO airport designator
Station Type Date Time Source
LFRO METAR 2019/02/18 04:00 UTC NOAA

LFRO 180400Z AUTO 19005KT 160V220 9999 -RA NSC 09/08 Q1016


Station Type Date Time Source
LFRO Decoded METAR 2019/02/18 04:00 UTC NOAA

Lannion / Servel, France (LFRO) 48-45N 003-28W
Feb 17, 2019 - 11:00 PM EST / 2019.02.18 0400 UTC
Wind: from the S (190 degrees) at 6 MPH (5 KT) (direction variable):0
Visibility: greater than 7 mile(s):0
Weather: light rain
Temperature: 48 F (9 C)
Dew Point: 46 F (8 C)
Relative Humidity: 93%
Pressure (altimeter): 30.00 in. Hg (1016 hPa)
ob: LFRO 180400Z AUTO 19005KT 160V220 9999 -RA NSC 09/08 Q1016
cycle: 4

Station Type Date Time Source
LFRO TAF 2019/02/17 20:59 UTC NOAA

TAF LFRO 172057Z 1720/1818 CNL


Example: see airport list